Time;durP1;ratioP1;P1;durP2;ratioP2;P2;SDS_P1;SDS_P2;PMS_P1;PMS_P2;Temp;Humidity;BMP_temperature;BMP_pressure;BME280_temperature;BME280_humidity;BME280_pressure;Samples;Min_cycle;Max_cycle;Signal;HPM_P1;HPM_P2
2023/07/06 00:01:02;;;;;;;7.25;4.10;;;;;;;-140.66;100.00;55571.53;5115041;28;20024;-74
2023/07/06 00:03:49;;;;;;;5.30;4.25;;;;;;;-140.66;100.00;55571.53;5099959;28;20066;-74
2023/07/06 00:06:36;;;;;;;6.30;4.18;;;;;;;-140.66;100.00;55571.53;5114454;28;20024;-74
2023/07/06 00:09:22;;;;;;;6.53;4.30;;;;;;;-140.66;100.00;55571.53;5115536;28;20398;-73
2023/07/06 00:12:08;;;;;;;8.38;4.40;;;;;;;-140.66;100.00;55571.53;5113091;28;20061;-74
2023/07/06 00:14:54;;;;;;;5.07;3.97;;;;;;;-140.66;100.00;55571.53;5113995;28;20028;-74
2023/07/06 00:17:39;;;;;;;5.78;3.90;;;;;;;-140.66;100.00;55571.53;5114795;28;20024;-73
2023/07/06 00:20:25;;;;;;;4.25;3.65;;;;;;;-140.66;100.00;55571.53;5113372;28;20053;-74
2023/07/06 00:23:11;;;;;;;6.60;4.18;;;;;;;-140.66;100.00;55571.53;5115864;28;20024;-73
2023/07/06 00:25:57;;;;;;;7.35;4.10;;;;;;;-140.66;100.00;55571.53;5117851;28;20028;-74
2023/07/06 00:28:43;;;;;;;6.55;4.38;;;;;;;-140.66;100.00;55571.53;5104326;28;20037;-74
2023/07/06 00:31:50;;;;;;;7.05;4.13;;;;;;;-140.66;100.00;55571.53;5118704;28;20035;-73
2023/07/06 00:34:36;;;;;;;5.90;4.50;;;;;;;-140.66;100.00;55571.53;5117859;28;20054;-73
2023/07/06 00:37:22;;;;;;;8.07;4.20;;;;;;;-140.66;100.00;55571.53;5117544;28;20041;-74
2023/07/06 00:40:13;;;;;;;6.57;4.20;;;;;;;-140.66;100.00;55571.53;5117815;28;20034;-74
2023/07/06 00:42:59;;;;;;;9.23;4.38;;;;;;;-140.66;100.00;55571.53;5118940;28;20032;-74
2023/07/06 00:45:47;;;;;;;6.63;4.30;;;;;;;-140.66;100.00;55571.53;5103256;28;20081;-74
2023/07/06 00:48:37;;;;;;;7.72;4.82;;;;;;;-140.66;100.00;55571.53;5117187;28;20358;-74
2023/07/06 00:51:36;;;;;;;6.85;4.32;;;;;;;-140.66;100.00;55571.53;5102277;28;20028;-74
2023/07/06 00:54:24;;;;;;;9.60;4.68;;;;;;;-140.66;100.00;55571.53;5117125;28;20031;-74
2023/07/06 00:57:12;;;;;;;4.72;4.00;;;;;;;-140.66;100.00;55571.53;5117645;28;20031;-74
2023/07/06 00:59:58;;;;;;;7.20;4.25;;;;;;;-140.66;100.00;55571.53;5117419;28;20047;-74
2023/07/06 01:02:44;;;;;;;6.68;4.55;;;;;;;-140.66;100.00;55571.53;5124151;27;20435;-73
2023/07/06 01:05:31;;;;;;;5.70;4.38;;;;;;;-140.66;100.00;55571.53;5118809;28;20035;-74
2023/07/06 01:08:20;;;;;;;7.10;4.10;;;;;;;-140.66;100.00;55571.53;5117894;28;20108;-74
2023/07/06 01:11:09;;;;;;;7.97;3.78;;;;;;;-140.66;100.00;55571.53;5102080;28;20055;-74
2023/07/06 01:13:57;;;;;;;12.27;4.20;;;;;;;-140.66;100.00;55571.53;5117025;28;20062;-74
2023/07/06 01:16:50;;;;;;;6.22;4.07;;;;;;;-140.66;100.00;55571.53;5117481;28;20059;-73
2023/07/06 01:20:15;;;;;;;5.38;3.50;;;;;;;-140.66;100.00;55571.53;5116659;28;20039;-73
2023/07/06 01:23:28;;;;;;;7.85;3.50;;;;;;;-140.66;100.00;55571.53;5117378;28;20032;-73
2023/07/06 01:26:37;;;;;;;4.55;3.80;;;;;;;-140.66;100.00;55571.53;5117072;28;20039;-74
2023/07/06 01:29:45;;;;;;;5.38;3.83;;;;;;;-140.66;100.00;55571.53;5123075;28;20018;-74
2023/07/06 01:32:37;;;;;;;5.32;3.95;;;;;;;-140.66;100.00;55571.53;5105228;28;20019;-74
2023/07/06 01:35:57;;;;;;;7.68;3.97;;;;;;;-140.66;100.00;55571.53;5116871;28;20100;-74
2023/07/06 01:38:43;;;;;;;7.60;4.10;;;;;;;-140.66;100.00;55571.53;5056356;28;20058;-74
2023/07/06 01:41:28;;;;;;;5.95;3.28;;;;;;;-140.66;100.00;55571.53;5116122;28;20042;-74
2023/07/06 01:44:16;;;;;;;5.03;3.45;;;;;;;-140.66;100.00;55571.53;5117285;28;20382;-73
2023/07/06 01:47:03;;;;;;;4.22;3.40;;;;;;;-140.66;100.00;55571.53;5101942;28;20097;-74
2023/07/06 01:49:49;;;;;;;3.03;2.72;;;;;;;-140.66;100.00;55571.53;5116368;28;20059;-74
2023/07/06 01:53:07;;;;;;;4.00;3.25;;;;;;;-140.66;100.00;55571.53;5116246;28;20039;-73
2023/07/06 01:56:13;;;;;;;4.82;3.28;;;;;;;-140.66;100.00;55571.53;5101676;28;20439;-73
2023/07/06 01:59:03;;;;;;;3.67;2.92;;;;;;;-140.66;100.00;55571.53;5115887;28;20043;-74
2023/07/06 02:02:01;;;;;;;3.95;3.15;;;;;;;-140.66;100.00;55571.53;5101121;28;20355;-75
2023/07/06 02:04:47;;;;;;;6.05;2.85;;;;;;;-140.66;100.00;55571.53;5116178;28;20023;-74
2023/07/06 02:07:33;;;;;;;3.42;2.97;;;;;;;-140.66;100.00;55571.53;5116618;28;20023;-74
2023/07/06 02:10:22;;;;;;;4.13;2.83;;;;;;;-140.66;100.00;55571.53;5116074;28;20111;-74
2023/07/06 02:13:07;;;;;;;3.95;3.10;;;;;;;-140.66;100.00;55571.53;5116784;28;20023;-74
2023/07/06 02:15:54;;;;;;;7.35;4.20;;;;;;;-140.66;100.00;55571.53;5116314;28;20123;-73
2023/07/06 02:18:40;;;;;;;8.02;3.63;;;;;;;-140.66;100.00;55571.53;5101616;28;20042;-74
2023/07/06 02:21:26;;;;;;;3.97;3.03;;;;;;;-140.66;100.00;55571.53;5116328;28;20058;-73
2023/07/06 02:24:12;;;;;;;4.28;3.38;;;;;;;-140.66;100.00;55571.53;5115373;28;20028;-74
2023/07/06 02:26:57;;;;;;;4.75;3.45;;;;;;;-140.66;100.00;55571.53;5114414;28;20028;-74
2023/07/06 02:29:43;;;;;;;5.95;3.30;;;;;;;-140.66;100.00;55571.53;5116184;28;20038;-73
2023/07/06 02:32:29;;;;;;;4.65;3.30;;;;;;;-140.66;100.00;55571.53;5116012;28;20039;-73
2023/07/06 02:35:15;;;;;;;5.22;3.25;;;;;;;-140.66;100.00;55571.53;5115175;28;20058;-74
2023/07/06 02:38:01;;;;;;;3.33;2.97;;;;;;;-140.66;100.00;55571.53;5115546;28;20084;-74
2023/07/06 02:40:49;;;;;;;4.05;3.38;;;;;;;-140.66;100.00;55571.53;5115633;28;20027;-74
2023/07/06 02:43:35;;;;;;;4.90;3.22;;;;;;;-140.66;100.00;55571.53;5115730;28;20038;-73
2023/07/06 02:46:20;;;;;;;8.80;3.80;;;;;;;-140.66;100.00;55571.53;5114723;28;20027;-73
2023/07/06 02:49:06;;;;;;;7.28;3.83;;;;;;;-140.66;100.00;55571.53;5116237;28;20023;-74
2023/07/06 02:51:52;;;;;;;5.65;4.35;;;;;;;-140.66;100.00;55571.53;5115388;28;20023;-74
2023/07/06 02:54:38;;;;;;;6.28;4.60;;;;;;;-140.66;100.00;55571.53;5115294;28;20403;-74
2023/07/06 02:57:23;;;;;;;5.28;4.30;;;;;;;-140.66;100.00;55571.53;5115522;28;20038;-74
2023/07/06 03:00:16;;;;;;;6.55;4.10;;;;;;;-140.66;100.00;55571.53;5115099;28;20030;-74
2023/07/06 03:03:03;;;;;;;8.93;4.20;;;;;;;-140.66;100.00;55571.53;5114961;28;20080;-74
2023/07/06 03:05:49;;;;;;;4.90;4.05;;;;;;;-140.66;100.00;55571.53;5115371;28;20452;-74
2023/07/06 03:08:35;;;;;;;4.65;4.07;;;;;;;-140.66;100.00;55571.53;5114845;28;20028;-74
2023/07/06 03:11:20;;;;;;;4.30;3.90;;;;;;;-140.66;100.00;55571.53;5114427;28;20448;-74
2023/07/06 03:14:06;;;;;;;6.53;4.28;;;;;;;-140.66;100.00;55571.53;5114504;28;20447;-75
2023/07/06 03:16:53;;;;;;;4.75;3.60;;;;;;;-140.66;100.00;55571.53;5115278;28;20444;-74
2023/07/06 03:19:39;;;;;;;6.78;4.47;;;;;;;-140.66;100.00;55571.53;5100180;28;20479;-73
2023/07/06 03:22:25;;;;;;;5.28;4.00;;;;;;;-140.66;100.00;55571.53;5115422;28;20023;-74
2023/07/06 03:25:14;;;;;;;6.22;4.28;;;;;;;-140.66;100.00;55571.53;5114980;28;20047;-74
2023/07/06 03:28:00;;;;;;;5.47;4.45;;;;;;;-140.66;100.00;55571.53;5115670;28;20020;-75
2023/07/06 03:30:53;;;;;;;12.77;4.80;;;;;;;-140.66;100.00;55571.53;5114529;28;20116;-74
2023/07/06 03:33:41;;;;;;;12.05;4.32;;;;;;;-140.66;100.00;55571.53;5099689;28;20024;-74
2023/07/06 03:36:27;;;;;;;9.70;4.50;;;;;;;-140.66;100.00;55571.53;5113380;28;20052;-75
2023/07/06 03:39:12;;;;;;;5.18;4.30;;;;;;;-140.66;100.00;55571.53;5100750;28;20114;-74
2023/07/06 03:41:58;;;;;;;6.80;4.45;;;;;;;-140.66;100.00;55571.53;5101038;28;20023;-74
2023/07/06 03:44:45;;;;;;;7.20;4.72;;;;;;;-140.66;100.00;55571.53;5100292;28;20023;-74
2023/07/06 03:47:33;;;;;;;9.23;4.95;;;;;;;-140.66;100.00;55571.53;5114048;28;20418;-75
2023/07/06 03:50:23;;;;;;;5.80;4.50;;;;;;;-140.66;100.00;55571.53;5114560;28;20046;-74
2023/07/06 03:53:10;;;;;;;8.27;4.63;;;;;;;-140.66;100.00;55571.53;5114844;28;20034;-75
2023/07/06 03:55:55;;;;;;;6.57;4.63;;;;;;;-140.66;100.00;55571.53;5113790;28;20078;-74
2023/07/06 03:58:42;;;;;;;6.88;4.65;;;;;;;-140.66;100.00;55571.53;5113545;28;20046;-73
2023/07/06 04:01:32;;;;;;;8.02;4.82;;;;;;;-140.66;100.00;55571.53;5099567;28;20031;-74
2023/07/06 04:04:19;;;;;;;7.30;5.20;;;;;;;-140.66;100.00;55571.53;5114363;28;20028;-74
2023/07/06 04:07:10;;;;;;;8.35;4.95;;;;;;;-140.66;100.00;55571.53;5114825;28;20055;-74
2023/07/06 04:09:56;;;;;;;8.70;4.85;;;;;;;-140.66;100.00;55571.53;5112934;28;20026;-75
2023/07/06 04:12:42;;;;;;;9.07;4.78;;;;;;;-140.66;100.00;55571.53;5099012;28;20120;-74
2023/07/06 04:15:28;;;;;;;7.90;4.57;;;;;;;-140.66;100.00;55571.53;5114145;28;20131;-74
2023/07/06 04:18:15;;;;;;;7.55;4.95;;;;;;;-140.66;100.00;55571.53;5114426;28;20028;-74
2023/07/06 04:21:01;;;;;;;10.93;4.90;;;;;;;-140.66;100.00;55571.53;5099209;28;20400;-74
2023/07/06 04:23:48;;;;;;;10.75;5.18;;;;;;;-140.66;100.00;55571.53;5113628;28;20036;-74
2023/07/06 04:26:34;;;;;;;9.02;5.13;;;;;;;-140.66;100.00;55571.53;5114533;28;20035;-74
2023/07/06 04:29:20;;;;;;;8.38;4.90;;;;;;;-140.66;100.00;55571.53;5133578;28;20059;-74
2023/07/06 04:32:06;;;;;;;7.53;4.85;;;;;;;-140.66;100.00;55571.53;5129944;28;20069;-74
2023/07/06 04:34:52;;;;;;;9.02;4.78;;;;;;;-140.66;100.00;55571.53;5114992;28;20371;-74
2023/07/06 04:37:37;;;;;;;7.75;4.90;;;;;;;-140.66;100.00;55571.53;5114728;28;20019;-74
2023/07/06 04:40:26;;;;;;;8.75;5.18;;;;;;;-140.66;100.00;55571.53;5114624;28;20031;-74
2023/07/06 04:43:12;;;;;;;8.52;5.25;;;;;;;-140.66;100.00;55571.53;5113493;28;20452;-74
2023/07/06 04:45:58;;;;;;;7.30;5.00;;;;;;;-140.66;100.00;55571.53;5114152;28;20436;-74
2023/07/06 04:48:44;;;;;;;6.80;4.97;;;;;;;-140.66;100.00;55571.53;5120178;28;20047;-74
2023/07/06 04:51:30;;;;;;;7.22;5.03;;;;;;;-140.66;100.00;55571.53;5126899;28;20341;-74
2023/07/06 04:54:17;;;;;;;8.02;5.30;;;;;;;-140.66;100.00;55571.53;5114018;28;20393;-74
2023/07/06 04:57:04;;;;;;;10.15;5.32;;;;;;;-140.66;100.00;55571.53;5113924;28;20472;-75
2023/07/06 04:59:49;;;;;;;7.45;4.70;;;;;;;-140.66;100.00;55571.53;5100323;28;20044;-74
2023/07/06 05:02:35;;;;;;;7.18;5.10;;;;;;;-140.66;100.00;55571.53;5099172;28;20481;-75
2023/07/06 05:05:22;;;;;;;9.68;5.32;;;;;;;-140.66;100.00;55571.53;5113359;28;20104;-74
2023/07/06 05:08:10;;;;;;;8.88;5.28;;;;;;;-140.66;100.00;55571.53;5113534;28;20088;-76
2023/07/06 05:10:56;;;;;;;6.75;5.13;;;;;;;-140.66;100.00;55571.53;5116545;28;20106;-76
2023/07/06 05:13:41;;;;;;;6.43;5.10;;;;;;;-140.66;100.00;55571.53;5117169;28;20027;-74
2023/07/06 05:16:27;;;;;;;9.20;5.22;;;;;;;-140.66;100.00;55571.53;5117980;28;20053;-74
2023/07/06 05:19:15;;;;;;;7.75;4.93;;;;;;;-140.66;100.00;55571.53;5118433;28;20035;-74
2023/07/06 05:22:02;;;;;;;6.70;5.43;;;;;;;-140.66;100.00;55571.53;5120712;28;20031;-75
2023/07/06 05:24:48;;;;;;;8.52;5.32;;;;;;;-140.66;100.00;55571.53;5117538;28;20092;-75
2023/07/06 05:27:35;;;;;;;8.75;4.95;;;;;;;-140.66;100.00;55571.53;5116679;28;20058;-74
2023/07/06 05:30:21;;;;;;;7.75;5.03;;;;;;;-140.66;100.00;55571.53;5117252;28;20467;-75
2023/07/06 05:33:07;;;;;;;9.77;5.38;;;;;;;-140.66;100.00;55571.53;5118029;28;20447;-75
2023/07/06 05:35:52;;;;;;;8.43;5.47;;;;;;;-140.66;100.00;55571.53;5116615;28;20115;-74
2023/07/06 05:38:38;;;;;;;8.50;5.38;;;;;;;-140.66;100.00;55571.53;5116458;28;20030;-75
2023/07/06 05:41:24;;;;;;;6.43;5.10;;;;;;;-140.66;100.00;55571.53;5101942;28;20035;-75
2023/07/06 05:44:10;;;;;;;7.95;5.00;;;;;;;-140.66;100.00;55571.53;5102389;28;20035;-74
2023/07/06 05:46:55;;;;;;;11.73;6.10;;;;;;;-140.66;100.00;55571.53;5116564;28;20034;-74
2023/07/06 05:49:41;;;;;;;9.80;6.45;;;;;;;-140.66;100.00;55571.53;5116052;28;20074;-74
2023/07/06 05:52:27;;;;;;;15.45;5.70;;;;;;;-140.66;100.00;55571.53;5117099;28;20023;-74
2023/07/06 05:55:13;;;;;;;9.75;5.53;;;;;;;-140.66;100.00;55571.53;5116548;28;20027;-75
2023/07/06 05:57:59;;;;;;;8.70;5.65;;;;;;;-140.66;100.00;55571.53;5116151;28;20027;-75
2023/07/06 06:00:45;;;;;;;8.55;6.05;;;;;;;-140.66;100.00;55571.53;5116676;28;20023;-75
2023/07/06 06:03:31;;;;;;;10.38;5.65;;;;;;;-140.66;100.00;55571.53;5117337;28;20471;-74
2023/07/06 06:06:21;;;;;;;7.35;5.50;;;;;;;-140.66;100.00;55571.53;5101903;28;20046;-75
2023/07/06 06:09:08;;;;;;;8.57;5.90;;;;;;;-140.66;100.00;55571.53;5116463;28;20024;-74
2023/07/06 06:11:54;;;;;;;12.75;5.80;;;;;;;-140.66;100.00;55571.53;5103058;28;20039;-74
2023/07/06 06:14:40;;;;;;;7.68;6.13;;;;;;;-140.66;100.00;55571.53;5101428;28;20092;-74
2023/07/06 06:17:27;;;;;;;7.85;5.57;;;;;;;-140.66;100.00;55571.53;5101859;28;20364;-74
2023/07/06 06:20:12;;;;;;;10.40;6.40;;;;;;;-140.66;100.00;55571.53;5116409;28;20219;-79
2023/07/06 06:22:59;;;;;;;9.73;6.10;;;;;;;-140.66;100.00;55571.53;5115979;28;20043;-74
2023/07/06 06:25:45;;;;;;;9.48;6.00;;;;;;;-140.66;100.00;55571.53;5115548;28;20051;-75
2023/07/06 06:28:30;;;;;;;8.70;6.00;;;;;;;-140.66;100.00;55571.53;5115901;28;20029;-74
2023/07/06 06:31:16;;;;;;;9.57;6.18;;;;;;;-140.66;100.00;55571.53;5116051;28;20054;-74
2023/07/06 06:34:03;;;;;;;9.88;6.00;;;;;;;-140.66;100.00;55571.53;5116034;28;20073;-74
2023/07/06 06:36:49;;;;;;;7.78;5.97;;;;;;;-140.66;100.00;55571.53;5099763;28;20080;-74
2023/07/06 06:39:35;;;;;;;12.32;5.45;;;;;;;-140.66;100.00;55571.53;5115104;28;20036;-74
2023/07/06 06:42:21;;;;;;;12.27;5.88;;;;;;;-140.66;100.00;55571.53;5101825;28;20129;-75
2023/07/06 06:45:07;;;;;;;11.82;5.88;;;;;;;-140.66;100.00;55571.53;5115496;28;20028;-74
2023/07/06 06:47:53;;;;;;;11.55;5.82;;;;;;;-140.66;100.00;55571.53;5114773;28;20038;-74
2023/07/06 06:50:39;;;;;;;12.88;6.00;;;;;;;-140.66;100.00;55571.53;5115780;28;20081;-74
2023/07/06 06:53:26;;;;;;;12.20;5.90;;;;;;;-140.66;100.00;55571.53;5115470;28;20027;-75
2023/07/06 06:56:12;;;;;;;12.15;6.63;;;;;;;-140.66;100.00;55571.53;5116385;28;20028;-74
2023/07/06 06:58:58;;;;;;;8.73;5.75;;;;;;;-140.66;100.00;55571.53;5116285;28;20390;-75
2023/07/06 07:01:44;;;;;;;12.52;6.90;;;;;;;-140.66;100.00;55571.53;5116367;28;20069;-75
2023/07/06 07:04:31;;;;;;;11.73;6.20;;;;;;;-140.66;100.00;55571.53;5099465;28;20106;-75
2023/07/06 07:07:17;;;;;;;7.15;5.25;;;;;;;-140.66;100.00;55571.53;5113815;28;20030;-74
2023/07/06 07:10:03;;;;;;;8.77;5.30;;;;;;;-140.66;100.00;55571.53;5116227;28;20023;-74
2023/07/06 07:12:48;;;;;;;11.40;6.32;;;;;;;-140.66;100.00;55571.53;5100420;28;20077;-74
2023/07/06 07:15:34;;;;;;;11.05;5.70;;;;;;;-140.66;100.00;55571.53;5116130;28;20352;-75
2023/07/06 07:18:23;;;;;;;8.27;5.30;;;;;;;-140.66;100.00;55571.53;5114439;28;20031;-75
2023/07/06 07:21:10;;;;;;;12.85;6.22;;;;;;;-140.66;100.00;55571.53;5114935;28;20040;-74
2023/07/06 07:23:56;;;;;;;9.55;5.75;;;;;;;-140.66;100.00;55571.53;5115656;28;20023;-75
2023/07/06 07:26:42;;;;;;;12.68;5.72;;;;;;;-140.66;100.00;55571.53;5115580;28;20035;-75
2023/07/06 07:29:28;;;;;;;9.73;6.18;;;;;;;-140.66;100.00;55571.53;5099914;28;20028;-74
2023/07/06 07:32:14;;;;;;;13.82;5.90;;;;;;;-140.66;100.00;55571.53;5116163;28;20109;-74
2023/07/06 07:35:01;;;;;;;8.70;5.63;;;;;;;-140.66;100.00;55571.53;5115271;28;20399;-74
2023/07/06 07:37:50;;;;;;;10.38;5.55;;;;;;;-140.66;100.00;55571.53;5115150;28;20039;-74
2023/07/06 07:40:36;;;;;;;9.43;5.68;;;;;;;-140.66;100.00;55571.53;5114631;28;20110;-74
2023/07/06 07:43:27;;;;;;;9.75;5.72;;;;;;;-140.66;100.00;55571.53;5114677;28;20038;-74
2023/07/06 07:46:17;;;;;;;11.68;5.75;;;;;;;-140.66;100.00;55571.53;5114693;28;20031;-74
2023/07/06 07:49:02;;;;;;;11.60;6.30;;;;;;;-140.66;100.00;55571.53;5113834;28;20360;-74
2023/07/06 07:51:48;;;;;;;8.93;5.70;;;;;;;-140.66;100.00;55571.53;5114121;28;20364;-74
2023/07/06 07:54:34;;;;;;;9.48;5.55;;;;;;;-140.66;100.00;55571.53;5113705;28;20031;-75
2023/07/06 07:57:19;;;;;;;8.63;5.88;;;;;;;-140.66;100.00;55571.53;5099717;28;20098;-75
2023/07/06 08:00:08;;;;;;;11.98;5.63;;;;;;;-140.66;100.00;55571.53;5114174;28;20035;-75
2023/07/06 08:02:55;;;;;;;8.80;5.40;;;;;;;-140.66;100.00;55571.53;5100057;28;20058;-75
2023/07/06 08:05:42;;;;;;;14.10;5.53;;;;;;;-140.66;100.00;55571.53;5113926;28;20027;-75
2023/07/06 08:08:28;;;;;;;7.15;5.70;;;;;;;-140.66;100.00;55571.53;5114006;28;20032;-75
2023/07/06 08:11:20;;;;;;;11.90;5.60;;;;;;;-140.66;100.00;55571.53;5113976;28;20368;-75
2023/07/06 08:14:10;;;;;;;9.57;6.22;;;;;;;-140.66;100.00;55571.53;5099855;28;20356;-77
2023/07/06 08:16:58;;;;;;;11.07;5.95;;;;;;;-140.66;100.00;55571.53;5114633;28;20046;-74
2023/07/06 08:19:45;;;;;;;13.88;5.93;;;;;;;-140.66;100.00;55571.53;5099128;28;20371;-77
2023/07/06 08:22:32;;;;;;;8.65;5.93;;;;;;;-140.66;100.00;55571.53;5098943;28;20031;-75
2023/07/06 08:25:19;;;;;;;8.13;5.07;;;;;;;-140.66;100.00;55571.53;5114407;28;20031;-74
2023/07/06 08:28:09;;;;;;;12.57;6.40;;;;;;;-140.66;100.00;55571.53;5114688;28;20038;-74
2023/07/06 08:30:55;;;;;;;7.07;5.78;;;;;;;-140.66;100.00;55571.53;5099585;28;20428;-73
2023/07/06 08:33:41;;;;;;;9.35;5.45;;;;;;;-140.66;100.00;55571.53;5114543;28;20389;-75
2023/07/06 08:36:27;;;;;;;9.13;5.50;;;;;;;-140.66;100.00;55571.53;5099635;28;20037;-74
2023/07/06 08:39:13;;;;;;;10.23;5.28;;;;;;;-140.66;100.00;55571.53;5100602;28;20383;-74
2023/07/06 08:41:59;;;;;;;16.30;5.60;;;;;;;-140.66;100.00;55571.53;5100670;28;20368;-75
2023/07/06 08:44:56;;;;;;;8.70;5.70;;;;;;;-140.66;100.00;55571.53;5102028;28;20093;-75
2023/07/06 08:47:44;;;;;;;8.30;5.47;;;;;;;-140.66;100.00;55571.53;5118300;28;20448;-74
2023/07/06 08:50:31;;;;;;;9.80;5.70;;;;;;;-140.66;100.00;55571.53;5104200;28;20027;-74
2023/07/06 08:53:19;;;;;;;11.68;5.63;;;;;;;-140.66;100.00;55571.53;5117397;28;20105;-75
2023/07/06 08:56:09;;;;;;;8.60;5.57;;;;;;;-140.66;100.00;55571.53;5118645;28;20093;-74
2023/07/06 08:58:58;;;;;;;7.22;5.32;;;;;;;-140.66;100.00;55571.53;5102803;28;20034;-75
2023/07/06 09:01:45;;;;;;;8.95;5.70;;;;;;;-140.66;100.00;55571.53;5118190;28;20020;-79
2023/07/06 09:04:31;;;;;;;10.63;5.53;;;;;;;-140.66;100.00;55571.53;5118856;28;20151;-77
2023/07/06 09:07:26;;;;;;;15.95;5.40;;;;;;;-140.66;100.00;55571.53;5118165;28;20043;-74
2023/07/06 09:10:20;;;;;;;8.52;5.78;;;;;;;-140.66;100.00;55571.53;5117895;28;20032;-76
2023/07/06 09:13:19;;;;;;;8.85;5.72;;;;;;;-140.66;100.00;55571.53;5117963;28;20031;-75
2023/07/06 09:16:07;;;;;;;8.27;4.68;;;;;;;-140.66;100.00;55571.53;5117222;28;20064;-76
2023/07/06 09:18:53;;;;;;;9.82;5.60;;;;;;;-140.66;100.00;55571.53;5116671;28;20371;-75
2023/07/06 09:21:40;;;;;;;9.50;5.53;;;;;;;-140.66;100.00;55571.53;5116327;28;20023;-75
2023/07/06 09:24:27;;;;;;;8.73;6.60;;;;;;;-140.66;100.00;55571.53;5102789;28;20045;-75
2023/07/06 09:27:18;;;;;;;8.68;5.18;;;;;;;-140.66;100.00;55571.53;5101382;28;20502;-75
2023/07/06 09:30:07;;;;;;;10.25;5.45;;;;;;;-140.66;100.00;55571.53;5101475;28;20027;-74
2023/07/06 09:32:54;;;;;;;12.57;5.00;;;;;;;-140.66;100.00;55571.53;5101319;28;20024;-74
2023/07/06 09:35:41;;;;;;;8.50;5.18;;;;;;;-140.66;100.00;55571.53;5117290;28;20485;-75
2023/07/06 09:38:30;;;;;;;9.73;4.90;;;;;;;-140.66;100.00;55571.53;5119746;28;20054;-75
2023/07/06 09:41:24;;;;;;;13.20;5.90;;;;;;;-140.66;100.00;55571.53;5117015;28;20031;-75
2023/07/06 09:44:32;;;;;;;9.43;4.90;;;;;;;-140.66;100.00;55571.53;5116721;28;20062;-75
2023/07/06 09:47:18;;;;;;;5.90;4.68;;;;;;;-140.66;100.00;55571.53;5116707;28;20024;-74
2023/07/06 09:50:18;;;;;;;11.50;5.40;;;;;;;-140.66;100.00;55571.53;5102566;28;20023;-75
2023/07/06 09:53:07;;;;;;;13.15;5.03;;;;;;;-140.66;100.00;55571.53;5101288;28;20038;-74
2023/07/06 09:55:54;;;;;;;8.63;5.10;;;;;;;-140.66;100.00;55571.53;5113885;28;20023;-75
2023/07/06 09:58:41;;;;;;;7.25;4.80;;;;;;;-140.66;100.00;55571.53;5116379;28;20440;-75
2023/07/06 10:01:36;;;;;;;9.95;5.00;;;;;;;-140.66;100.00;55571.53;5128627;28;20026;-74
2023/07/06 10:05:00;;;;;;;6.63;4.63;;;;;;;-140.66;100.00;55571.53;5123398;28;20051;-75
2023/07/06 10:08:20;;;;;;;8.73;4.80;;;;;;;-140.66;100.00;55571.53;5116360;28;20027;-74
2023/07/06 10:11:42;;;;;;;10.95;4.53;;;;;;;-140.66;100.00;55571.53;5116261;28;20450;-75
2023/07/06 10:14:48;;;;;;;9.80;4.85;;;;;;;-140.66;100.00;55571.53;5101055;28;20023;-75
2023/07/06 10:17:37;;;;;;;5.97;4.85;;;;;;;-140.66;100.00;55571.53;5117177;28;20027;-75
2023/07/06 10:20:51;;;;;;;7.38;4.30;;;;;;;-140.66;100.00;55571.53;5114915;28;20063;-73
2023/07/06 10:23:46;;;;;;;12.43;4.95;;;;;;;-140.66;100.00;55571.53;5115468;28;20097;-74
2023/07/06 10:26:34;;;;;;;7.20;4.05;;;;;;;-140.66;100.00;55571.53;5116096;28;20110;-74
2023/07/06 10:29:28;;;;;;;8.20;4.75;;;;;;;-140.66;100.00;55571.53;5114598;28;20020;-75
2023/07/06 10:32:24;;;;;;;9.82;4.88;;;;;;;-140.66;100.00;55571.53;5115793;28;20028;-75
2023/07/06 10:35:26;;;;;;;8.80;4.68;;;;;;;-140.66;100.00;55571.53;5101500;28;20085;-75
2023/07/06 10:38:12;;;;;;;7.30;4.25;;;;;;;-140.66;100.00;55571.53;5115398;28;20451;-75
2023/07/06 10:41:10;;;;;;;7.10;4.72;;;;;;;-140.66;100.00;55571.53;5115595;28;20023;-76
2023/07/06 10:43:59;;;;;;;9.35;4.65;;;;;;;-140.66;100.00;55571.53;5100576;28;20038;-74
2023/07/06 10:46:57;;;;;;;10.02;4.63;;;;;;;-140.66;100.00;55571.53;5115937;28;20035;-74
2023/07/06 10:50:03;;;;;;;9.52;4.65;;;;;;;-140.66;100.00;55571.53;5115642;28;20114;-75
2023/07/06 10:52:57;;;;;;;7.50;4.22;;;;;;;-140.66;100.00;55571.53;5118123;28;20024;-74
2023/07/06 10:56:02;;;;;;;10.18;4.43;;;;;;;-140.66;100.00;55571.53;5115615;28;20110;-75
2023/07/06 10:59:00;;;;;;;6.38;4.28;;;;;;;-140.66;100.00;55571.53;5114879;28;20106;-75
2023/07/06 11:01:47;;;;;;;9.27;4.30;;;;;;;-140.66;100.00;55571.53;5115304;28;20546;-75
2023/07/06 11:04:36;;;;;;;11.73;5.28;;;;;;;-140.66;100.00;55571.53;5099522;28;20122;-75
2023/07/06 11:07:35;;;;;;;6.82;4.15;;;;;;;-140.66;100.00;55571.53;5116022;28;20096;-74
2023/07/06 11:10:21;;;;;;;52.15;5.93;;;;;;;-140.66;100.00;55571.53;5116087;28;20444;-74
2023/07/06 11:13:09;;;;;;;9.95;4.78;;;;;;;-140.66;100.00;55571.53;5115570;28;20027;-75
2023/07/06 11:15:59;;;;;;;7.45;4.65;;;;;;;-140.66;100.00;55571.53;5115580;28;20368;-75
2023/07/06 11:18:48;;;;;;;10.00;4.68;;;;;;;-140.66;100.00;55571.53;5114483;28;20045;-75
2023/07/06 11:21:43;;;;;;;8.68;5.05;;;;;;;-140.66;100.00;55571.53;5099599;28;20019;-74
2023/07/06 11:24:34;;;;;;;7.90;4.30;;;;;;;-140.66;100.00;55571.53;5114734;28;20030;-74
2023/07/06 11:27:25;;;;;;;11.70;5.07;;;;;;;-140.66;100.00;55571.53;5114903;28;20081;-73
2023/07/06 11:30:15;;;;;;;10.50;5.18;;;;;;;-140.66;100.00;55571.53;5115089;28;20134;-73
2023/07/06 11:33:19;;;;;;;9.50;5.30;;;;;;;-140.66;100.00;55571.53;5114534;28;20066;-74
2023/07/06 11:36:17;;;;;;;6.95;4.75;;;;;;;-140.66;100.00;55571.53;5114306;28;20047;-74
2023/07/06 11:39:26;;;;;;;10.00;5.10;;;;;;;-140.66;100.00;55571.53;5114472;28;20028;-74
2023/07/06 11:42:50;;;;;;;7.63;5.30;;;;;;;-140.66;100.00;55571.53;5114970;28;20505;-75
2023/07/06 11:45:39;;;;;;;11.65;5.10;;;;;;;-140.66;100.00;55571.53;5090717;28;20036;-74
2023/07/06 11:48:35;;;;;;;8.88;5.38;;;;;;;-140.66;100.00;55571.53;5114676;28;20092;-73
2023/07/06 11:51:22;;;;;;;11.60;5.30;;;;;;;-140.66;100.00;55571.53;5099428;28;20037;-74
2023/07/06 11:54:29;;;;;;;12.48;5.50;;;;;;;-140.66;100.00;55571.53;5099760;28;20133;-73
2023/07/06 11:57:25;;;;;;;8.60;5.63;;;;;;;-140.66;100.00;55571.53;5099572;28;20020;-74
2023/07/06 12:03:13;;;;;;;8.18;5.35;;;;;;;-140.66;100.00;55571.53;5114223;28;20034;-75
2023/07/06 12:06:00;;;;;;;10.43;4.97;;;;;;;-140.66;100.00;55571.53;5113480;28;20055;-74
2023/07/06 12:08:46;;;;;;;11.93;5.70;;;;;;;-140.66;100.00;55571.53;5114138;28;20451;-74
2023/07/06 12:11:31;;;;;;;11.63;5.75;;;;;;;-140.66;100.00;55571.53;5115081;28;20031;-74
2023/07/06 12:14:21;;;;;;;8.90;5.40;;;;;;;-140.66;100.00;55571.53;5114406;28;20011;-73
2023/07/06 12:17:11;;;;;;;8.45;5.20;;;;;;;-140.66;100.00;55571.53;5114865;28;20024;-74
2023/07/06 12:19:58;;;;;;;8.43;5.43;;;;;;;-140.66;100.00;55571.53;5102397;28;20051;-74
2023/07/06 12:22:56;;;;;;;10.00;5.68;;;;;;;-140.66;100.00;55571.53;5118206;28;20027;-74
2023/07/06 12:25:43;;;;;;;17.60;5.97;;;;;;;-140.66;100.00;55571.53;5118043;28;20024;-73
2023/07/06 12:28:29;;;;;;;15.05;5.90;;;;;;;-140.66;100.00;55571.53;5117110;28;20050;-74
2023/07/06 12:31:16;;;;;;;10.60;6.00;;;;;;;-140.66;100.00;55571.53;5118128;28;20024;-75
2023/07/06 12:34:03;;;;;;;9.02;6.10;;;;;;;-140.66;100.00;55571.53;5118798;28;20024;-74
2023/07/06 12:36:54;;;;;;;19.10;7.03;;;;;;;-140.66;100.00;55571.53;5118154;28;20368;-74
2023/07/06 12:39:42;;;;;;;11.18;6.50;;;;;;;-140.66;100.00;55571.53;5117251;28;20080;-74
2023/07/06 12:42:29;;;;;;;12.27;6.57;;;;;;;-140.66;100.00;55571.53;5103765;28;20059;-74
2023/07/06 12:45:18;;;;;;;9.32;7.05;;;;;;;-140.66;100.00;55571.53;5118685;28;20120;-74
2023/07/06 12:48:05;;;;;;;13.63;6.57;;;;;;;-140.66;100.00;55571.53;5118201;28;20035;-74
2023/07/06 12:50:54;;;;;;;11.15;6.32;;;;;;;-140.66;100.00;55571.53;5117875;28;20360;-74